Time;durP1;ratioP1;P1;durP2;ratioP2;P2;SDS_P1;SDS_P2;PMS_P1;PMS_P2;Temp;Humidity;BMP_temperature;BMP_pressure;BME280_temperature;BME280_humidity;BME280_pressure;Samples;Min_cycle;Max_cycle;Signal;HPM_P1;HPM_P2
2023/10/28 00:01:13;;;;;;;2.38;1.20;;;;;;;8.35;100.00;91197.34;6309277;22;20026;-79
2023/10/28 00:03:39;;;;;;;2.78;1.27;;;;;;;8.35;100.00;91199.94;6282236;22;20015;-79
2023/10/28 00:06:07;;;;;;;2.47;1.27;;;;;;;8.33;100.00;91196.88;6282006;22;20352;-79
2023/10/28 00:08:33;;;;;;;2.88;1.40;;;;;;;8.32;100.00;91198.72;6309352;22;20003;-79
2023/10/28 00:11:00;;;;;;;4.20;1.52;;;;;;;8.32;100.00;91195.34;6282919;22;20023;-79
2023/10/28 00:13:26;;;;;;;1.88;1.30;;;;;;;8.28;100.00;91197.03;6309526;22;20088;-79
2023/10/28 00:15:52;;;;;;;1.80;1.00;;;;;;;8.24;100.00;91207.31;6282156;22;20023;-79
2023/10/28 00:18:17;;;;;;;2.40;1.30;;;;;;;8.13;100.00;91201.59;6309970;22;20019;-79
2023/10/28 00:20:44;;;;;;;2.22;1.20;;;;;;;8.17;100.00;91209.56;6310259;22;20116;-79
2023/10/28 00:23:11;;;;;;;1.13;1.02;;;;;;;8.09;100.00;91208.47;6283907;22;20133;-79
2023/10/28 00:25:37;;;;;;;4.97;1.50;;;;;;;8.09;100.00;91216.28;6310475;22;20055;-80
2023/10/28 00:28:03;;;;;;;3.47;1.30;;;;;;;8.00;100.00;91219.94;6310348;22;20011;-79
2023/10/28 00:30:29;;;;;;;3.63;1.30;;;;;;;7.95;100.00;91218.25;6311009;22;20015;-79
2023/10/28 00:32:58;;;;;;;1.83;1.10;;;;;;;7.96;100.00;91232.03;6311825;22;20421;-79
2023/10/28 00:35:25;;;;;;;3.22;1.35;;;;;;;7.91;100.00;91230.31;6284892;22;20018;-79
2023/10/28 00:37:50;;;;;;;1.67;1.15;;;;;;;7.85;100.00;91229.66;6284148;22;20109;-79
2023/10/28 00:40:17;;;;;;;1.55;1.15;;;;;;;7.83;100.00;91231.81;6311427;22;20015;-79
2023/10/28 00:42:45;;;;;;;3.08;1.20;;;;;;;7.80;100.00;91229.81;6284160;22;20439;-79
2023/10/28 00:45:13;;;;;;;1.23;0.93;;;;;;;7.72;100.00;91223.50;6257535;22;20110;-79
2023/10/28 00:47:41;;;;;;;1.42;1.10;;;;;;;7.78;100.00;91231.19;6283553;22;20019;-79
2023/10/28 00:50:12;;;;;;;3.75;1.10;;;;;;;7.70;100.00;91217.81;6281313;22;20015;-80
2023/10/28 00:52:48;;;;;;;3.42;1.20;;;;;;;7.72;100.00;91227.91;6275150;22;20018;-79
2023/10/28 00:55:15;;;;;;;1.05;0.93;;;;;;;7.75;100.00;91227.34;6301983;22;20076;-79
2023/10/28 00:57:43;;;;;;;0.80;0.80;;;;;;;7.78;100.00;91226.72;6302335;22;20429;-77
2023/10/28 01:00:11;;;;;;;2.50;1.13;;;;;;;7.78;100.00;91228.56;6302444;22;20072;-77
2023/10/28 01:02:40;;;;;;;0.75;0.70;;;;;;;7.92;100.00;91226.63;6302421;22;20007;-77
2023/10/28 01:05:11;;;;;;;1.15;1.00;;;;;;;7.90;100.00;91218.34;6275441;22;20082;-79
2023/10/28 01:07:38;;;;;;;1.98;1.05;;;;;;;7.88;100.00;91236.91;6276424;22;20317;-79
2023/10/28 01:10:08;;;;;;;2.45;0.90;;;;;;;7.84;100.00;91220.34;6276841;22;20002;-79
2023/10/28 01:12:35;;;;;;;1.58;1.00;;;;;;;7.86;100.00;91225.25;6250929;22;20093;-79
2023/10/28 01:15:01;;;;;;;2.72;1.20;;;;;;;7.83;100.00;91225.84;6275837;22;20046;-79
2023/10/28 01:17:28;;;;;;;2.10;0.95;;;;;;;7.78;100.00;91224.13;6275906;22;20045;-78
2023/10/28 01:19:53;;;;;;;1.02;0.90;;;;;;;7.72;100.00;91222.72;6250938;22;20003;-79
2023/10/28 01:22:21;;;;;;;1.17;0.93;;;;;;;7.65;100.00;91225.72;6278311;22;20022;-79
2023/10/28 01:24:49;;;;;;;1.13;0.90;;;;;;;7.67;100.00;91226.22;6305302;22;19999;-78
2023/10/28 01:27:15;;;;;;;0.93;0.80;;;;;;;7.59;100.00;91219.13;6304812;22;20015;-79
2023/10/28 01:29:41;;;;;;;1.67;0.98;;;;;;;7.56;100.00;91214.50;6303082;22;20467;-79
2023/10/28 01:32:07;;;;;;;0.95;0.90;;;;;;;7.52;100.00;91229.22;6278597;22;20078;-79
2023/10/28 01:34:43;;;;;;;1.45;1.00;;;;;;;7.47;100.00;91231.91;6278711;22;20364;-79
2023/10/28 01:37:09;;;;;;;1.17;0.90;;;;;;;7.41;100.00;91233.88;6305313;22;20019;-79
2023/10/28 01:39:34;;;;;;;4.68;1.00;;;;;;;7.34;100.00;91230.13;6306363;22;20006;-78
2023/10/28 01:42:00;;;;;;;2.40;1.00;;;;;;;7.36;100.00;91236.59;6279272;22;20019;-79
2023/10/28 01:44:26;;;;;;;0.93;0.90;;;;;;;7.28;100.00;91232.88;6303965;22;20065;-79
2023/10/28 01:46:52;;;;;;;1.95;0.80;;;;;;;7.26;100.00;91237.59;6307495;22;20072;-79
2023/10/28 01:49:19;;;;;;;1.13;1.02;;;;;;;7.23;100.00;91235.59;6307147;22;20016;-78
2023/10/28 01:51:45;;;;;;;7.43;1.10;;;;;;;7.22;100.00;91231.44;6279832;22;20015;-79
2023/10/28 01:54:10;;;;;;;8.48;0.98;;;;;;;7.18;100.00;91235.72;6253067;22;20080;-79
2023/10/28 01:56:38;;;;;;;0.70;0.70;;;;;;;7.14;100.00;91224.34;6280918;22;20015;-79
2023/10/28 01:59:03;;;;;;;0.88;0.88;;;;;;;7.10;100.00;91223.41;6279782;22;20075;-78
2023/10/28 02:01:29;;;;;;;2.95;1.02;;;;;;;7.07;100.00;91218.78;6307622;22;20445;-79
2023/10/28 02:03:56;;;;;;;1.15;0.90;;;;;;;7.07;100.00;91222.16;6277500;22;20011;-79
2023/10/28 02:06:21;;;;;;;1.27;0.90;;;;;;;7.07;100.00;91214.34;6301843;22;20011;-79
2023/10/28 02:08:48;;;;;;;2.25;0.73;;;;;;;7.11;100.00;91214.53;6274158;22;20003;-79
2023/10/28 02:11:13;;;;;;;0.95;0.70;;;;;;;7.25;100.00;91219.66;6274061;22;20070;-78
2023/10/28 02:13:39;;;;;;;0.70;0.70;;;;;;;7.42;100.00;91219.03;6246993;22;20042;-78
2023/10/28 02:16:05;;;;;;;2.33;0.98;;;;;;;7.68;100.00;91224.41;6222655;22;20477;-79
2023/10/28 02:18:33;;;;;;;1.00;0.90;;;;;;;7.73;100.00;91224.25;6273734;22;20007;-78
2023/10/28 02:20:59;;;;;;;1.00;0.90;;;;;;;7.74;100.00;91235.44;6273968;22;20049;-79
2023/10/28 02:23:24;;;;;;;1.10;1.00;;;;;;;7.72;100.00;91222.72;6273331;22;20044;-78
2023/10/28 02:25:50;;;;;;;0.80;0.80;;;;;;;7.73;100.00;91229.47;6272763;22;20326;-79
2023/10/28 02:28:15;;;;;;;2.70;0.90;;;;;;;7.68;100.00;91230.38;6300361;22;20007;-78
2023/10/28 02:30:42;;;;;;;1.65;1.05;;;;;;;7.61;100.00;91222.22;6272638;22;20011;-78
2023/10/28 02:33:07;;;;;;;1.23;1.02;;;;;;;7.55;100.00;91227.84;6301042;22;20310;-79
2023/10/28 02:35:36;;;;;;;1.75;0.90;;;;;;;7.49;100.00;91214.91;6273355;22;20102;-78
2023/10/28 02:38:02;;;;;;;1.40;0.88;;;;;;;7.53;100.00;91215.09;6248218;22;20037;-79
2023/10/28 02:40:27;;;;;;;2.17;1.25;;;;;;;7.61;100.00;91211.00;6273661;22;20046;-78
2023/10/28 02:42:53;;;;;;;1.15;0.60;;;;;;;7.81;100.00;91210.50;6301021;22;20041;-78
2023/10/28 02:45:19;;;;;;;1.25;0.90;;;;;;;7.96;100.00;91211.94;6274251;22;20026;-78
2023/10/28 02:47:45;;;;;;;0.80;0.80;;;;;;;8.07;100.00;91202.78;6301337;22;20094;-78
2023/10/28 02:50:11;;;;;;;2.10;0.82;;;;;;;8.12;100.00;91194.06;6275269;22;20435;-78
2023/10/28 02:52:36;;;;;;;1.23;0.90;;;;;;;8.27;100.00;91195.50;6302782;22;20344;-79
2023/10/28 02:55:03;;;;;;;1.25;0.90;;;;;;;8.33;100.00;91200.28;6275038;22;20114;-78
2023/10/28 02:57:29;;;;;;;1.05;0.90;;;;;;;8.36;100.00;91198.91;6299800;22;20064;-79
2023/10/28 02:59:55;;;;;;;1.10;0.90;;;;;;;8.52;100.00;91204.47;6301261;22;20070;-79
2023/10/28 03:02:21;;;;;;;0.93;0.90;;;;;;;8.61;100.00;91199.28;6273597;22;20021;-79
2023/10/28 03:04:46;;;;;;;1.23;0.80;;;;;;;8.67;100.00;91211.09;6274063;22;20019;-78
2023/10/28 03:07:12;;;;;;;1.85;0.90;;;;;;;8.76;100.00;91214.50;6272621;22;20017;-79
2023/10/28 03:09:39;;;;;;;1.73;0.80;;;;;;;8.74;100.00;91227.09;6301355;22;20068;-78
2023/10/28 03:12:05;;;;;;;1.08;0.85;;;;;;;8.83;100.00;91227.88;6300077;22;20015;-78
2023/10/28 03:14:30;;;;;;;2.40;1.00;;;;;;;8.61;100.00;91241.03;6273529;22;20452;-79
2023/10/28 03:16:56;;;;;;;1.55;0.80;;;;;;;8.42;100.00;91238.66;6247636;22;20034;-78
2023/10/28 03:19:22;;;;;;;3.58;0.98;;;;;;;8.26;100.00;91241.66;6301609;22;20015;-78
2023/10/28 03:21:47;;;;;;;0.75;0.70;;;;;;;8.13;100.00;91235.47;6300972;22;20208;-78
2023/10/28 03:24:14;;;;;;;0.80;0.73;;;;;;;8.06;100.00;91239.56;6300710;22;20368;-78
2023/10/28 03:26:40;;;;;;;0.80;0.80;;;;;;;7.98;100.00;91246.28;6273558;22;20098;-78
2023/10/28 03:29:06;;;;;;;1.02;0.82;;;;;;;7.82;100.00;91238.09;6273673;22;20399;-79
2023/10/28 03:31:31;;;;;;;1.13;1.00;;;;;;;7.71;100.00;91240.19;6301413;22;20087;-78
2023/10/28 03:33:57;;;;;;;2.22;1.05;;;;;;;7.60;100.00;91246.69;6301076;22;20004;-78
2023/10/28 03:36:24;;;;;;;1.85;0.80;;;;;;;7.52;100.00;91239.63;6248423;22;20023;-78
2023/10/28 03:38:50;;;;;;;0.90;0.63;;;;;;;7.45;100.00;91239.25;6273715;22;20019;-78
2023/10/28 03:41:15;;;;;;;0.90;0.70;;;;;;;7.39;100.00;91237.84;6301223;22;20003;-78
2023/10/28 03:43:41;;;;;;;0.93;0.80;;;;;;;7.33;100.00;91236.44;6273655;22;20023;-78
2023/10/28 03:46:07;;;;;;;4.10;0.90;;;;;;;7.27;100.00;91239.16;6248053;22;20023;-79
2023/10/28 03:48:34;;;;;;;0.80;0.80;;;;;;;7.26;100.00;91247.25;6300898;22;19999;-78
2023/10/28 03:51:03;;;;;;;2.30;0.93;;;;;;;7.23;100.00;91247.84;6302227;22;20014;-77
2023/10/28 03:53:30;;;;;;;1.75;0.88;;;;;;;7.24;100.00;91247.53;6274901;22;20024;-78
2023/10/28 03:55:56;;;;;;;2.10;1.10;;;;;;;7.36;100.00;91252.22;6303229;22;20015;-79
2023/10/28 03:58:22;;;;;;;1.17;1.00;;;;;;;7.38;100.00;91244.09;6276072;22;20506;-79
2023/10/28 04:00:53;;;;;;;0.93;0.80;;;;;;;7.48;100.00;91247.25;6275128;22;20251;-80
2023/10/28 04:03:22;;;;;;;1.02;0.95;;;;;;;7.51;100.00;91248.50;6275243;22;20047;-79
2023/10/28 04:05:48;;;;;;;0.75;0.70;;;;;;;7.53;100.00;91254.16;6304034;22;20057;-79
2023/10/28 04:08:14;;;;;;;0.90;0.73;;;;;;;7.52;100.00;91257.84;6275610;22;20007;-79
2023/10/28 04:10:41;;;;;;;0.73;0.70;;;;;;;7.47;100.00;91269.13;6251007;22;20018;-80
2023/10/28 04:13:07;;;;;;;2.50;1.10;;;;;;;7.41;100.00;91274.78;6303396;22;20101;-79
2023/10/28 04:15:33;;;;;;;1.10;0.77;;;;;;;7.35;100.00;91268.91;6250769;22;20452;-80
2023/10/28 04:17:58;;;;;;;0.77;0.70;;;;;;;7.27;100.00;91267.00;6305343;22;20019;-79
2023/10/28 04:20:24;;;;;;;1.05;0.80;;;;;;;7.20;100.00;91266.63;6304759;22;20004;-79
2023/10/28 04:22:50;;;;;;;1.20;0.82;;;;;;;7.14;100.00;91268.59;6279634;22;20023;-79
2023/10/28 04:25:15;;;;;;;2.10;1.00;;;;;;;7.11;100.00;91271.00;6308488;22;20015;-79
2023/10/28 04:27:41;;;;;;;0.70;0.70;;;;;;;7.05;100.00;91278.16;6280637;22;20007;-79
2023/10/28 04:30:10;;;;;;;1.33;0.80;;;;;;;7.01;100.00;91288.38;6280576;22;20347;-79
2023/10/28 04:32:38;;;;;;;1.33;0.90;;;;;;;6.95;100.00;91284.34;6281139;22;20027;-79
2023/10/28 04:35:04;;;;;;;0.70;0.70;;;;;;;6.94;100.00;91280.22;6279866;22;20038;-79
2023/10/28 04:37:29;;;;;;;1.33;0.90;;;;;;;6.95;100.00;91286.19;6256070;22;20019;-79
2023/10/28 04:39:55;;;;;;;4.55;0.95;;;;;;;6.96;100.00;91277.31;6308111;22;20011;-79
2023/10/28 04:42:20;;;;;;;1.83;1.23;;;;;;;6.95;100.00;91283.56;6279530;22;20185;-79
2023/10/28 04:44:46;;;;;;;1.98;1.00;;;;;;;6.94;100.00;91282.06;6277419;22;20015;-79
2023/10/28 04:47:12;;;;;;;2.33;1.00;;;;;;;6.86;100.00;91286.84;6278170;22;20011;-78
2023/10/28 04:49:39;;;;;;;1.10;0.90;;;;;;;6.87;100.00;91298.81;6249961;22;20623;-79
2023/10/28 04:52:08;;;;;;;1.60;1.02;;;;;;;6.82;100.00;91296.31;6304750;22;20088;-79
2023/10/28 04:54:34;;;;;;;2.03;1.10;;;;;;;6.78;100.00;91300.56;6277581;22;20015;-79
2023/10/28 04:57:00;;;;;;;0.80;0.80;;;;;;;6.76;100.00;91297.50;6310563;22;20520;-79
2023/10/28 04:59:28;;;;;;;1.17;0.90;;;;;;;6.78;100.00;91305.00;6283407;22;20023;-79
2023/10/28 05:01:54;;;;;;;1.10;1.00;;;;;;;6.79;100.00;91296.91;6309199;22;20510;-79
2023/10/28 05:04:20;;;;;;;1.30;0.90;;;;;;;6.80;100.00;91301.06;6310196;22;20010;-79
2023/10/28 05:06:46;;;;;;;1.05;0.93;;;;;;;6.77;100.00;91293.03;6281440;22;20023;-79
2023/10/28 05:09:15;;;;;;;2.10;1.17;;;;;;;6.82;100.00;91300.75;6255797;22;20015;-79
2023/10/28 05:11:42;;;;;;;1.33;1.15;;;;;;;6.81;100.00;91299.22;6276583;22;20678;-79
2023/10/28 05:14:09;;;;;;;1.00;0.90;;;;;;;6.75;100.00;91306.34;6253346;22;20022;-79
2023/10/28 05:16:35;;;;;;;1.17;0.90;;;;;;;6.70;100.00;91311.66;6277846;22;20059;-78
2023/10/28 05:19:01;;;;;;;1.92;1.20;;;;;;;6.63;100.00;91319.84;6271235;22;20401;-78
2023/10/28 05:21:27;;;;;;;1.00;0.90;;;;;;;6.57;100.00;91313.19;6270682;22;20011;-78
2023/10/28 05:23:52;;;;;;;3.83;1.13;;;;;;;6.51;100.00;91306.56;6266710;22;20043;-78
2023/10/28 05:26:18;;;;;;;1.35;1.00;;;;;;;6.57;100.00;91294.22;6268882;22;20022;-78
2023/10/28 05:28:46;;;;;;;1.17;1.08;;;;;;;6.59;100.00;91299.91;6268292;22;20006;-78
2023/10/28 05:31:12;;;;;;;1.95;1.10;;;;;;;6.59;100.00;91297.31;6269536;22;20016;-78
2023/10/28 05:33:39;;;;;;;1.80;1.10;;;;;;;6.52;100.00;91305.50;6270216;22;20341;-78
2023/10/28 05:36:05;;;;;;;0.98;0.88;;;;;;;6.44;100.00;91306.19;6269745;22;20012;-78
2023/10/28 05:38:31;;;;;;;0.93;0.82;;;;;;;6.36;100.00;91296.44;6270493;22;20038;-82
2023/10/28 05:40:57;;;;;;;1.58;1.10;;;;;;;6.31;100.00;91297.31;6270432;22;20039;-82
2023/10/28 05:43:23;;;;;;;1.08;0.88;;;;;;;6.34;100.00;91304.53;6246782;22;20035;-83
2023/10/28 05:45:49;;;;;;;1.70;0.95;;;;;;;6.26;100.00;91289.63;6274371;22;20014;-81
2023/10/28 05:48:15;;;;;;;3.72;1.00;;;;;;;6.27;100.00;91300.78;6276451;22;20035;-84
2023/10/28 05:50:41;;;;;;;1.92;1.13;;;;;;;6.23;100.00;91300.56;6274666;22;20012;-83
2023/10/28 05:53:06;;;;;;;1.23;1.00;;;;;;;6.20;100.00;91308.94;6247067;22;20012;-83
2023/10/28 05:55:32;;;;;;;3.80;1.05;;;;;;;6.15;100.00;91320.22;6273948;22;20016;-83
2023/10/28 05:57:58;;;;;;;2.00;1.10;;;;;;;6.13;100.00;91324.91;6277192;22;20011;-82
2023/10/28 06:00:24;;;;;;;4.25;1.10;;;;;;;6.16;100.00;91328.75;6276935;22;20000;-83
2023/10/28 06:02:49;;;;;;;0.82;0.80;;;;;;;6.20;100.00;91330.50;6277534;22;20023;-80
2023/10/28 06:05:15;;;;;;;1.23;0.90;;;;;;;6.22;100.00;91332.81;6276920;22;20003;-78
2023/10/28 06:07:47;;;;;;;1.25;1.00;;;;;;;6.23;100.00;91342.91;6277704;22;20016;-78
2023/10/28 06:10:14;;;;;;;2.53;0.80;;;;;;;6.27;100.00;91345.72;6282862;22;20000;-78
2023/10/28 06:12:39;;;;;;;0.70;0.70;;;;;;;6.88;100.00;91352.38;6317240;22;20015;-79
2023/10/28 06:15:06;;;;;;;5.55;1.10;;;;;;;7.68;100.00;91337.16;6321776;22;20046;-80
2023/10/28 06:17:31;;;;;;;1.23;0.90;;;;;;;8.60;100.00;91347.22;6296021;22;20068;-78
2023/10/28 06:19:59;;;;;;;0.98;0.95;;;;;;;9.36;100.00;91346.91;6323403;22;20074;-79
2023/10/28 06:22:24;;;;;;;2.42;1.10;;;;;;;10.17;100.00;91347.38;6320608;22;20037;-78
2023/10/28 06:24:50;;;;;;;2.42;1.08;;;;;;;10.91;100.00;91348.09;6325865;22;20015;-79
2023/10/28 06:27:15;;;;;;;1.35;0.95;;;;;;;11.65;100.00;91347.50;6291863;22;20015;-79
2023/10/28 06:29:41;;;;;;;1.33;0.80;;;;;;;12.27;98.34;91348.56;6299088;22;19999;-78
2023/10/28 06:32:07;;;;;;;2.40;0.80;;;;;;;12.60;91.00;91353.00;6323399;22;20015;-78
2023/10/28 06:34:45;;;;;;;1.98;1.00;;;;;;;13.29;87.56;91361.19;6293691;22;20015;-79
2023/10/28 06:37:10;;;;;;;0.93;0.88;;;;;;;13.90;78.71;91362.94;6285240;22;20037;-79
2023/10/28 06:39:36;;;;;;;1.23;0.88;;;;;;;14.34;77.57;91366.41;6280981;22;20039;-80
2023/10/28 06:42:02;;;;;;;1.25;1.00;;;;;;;14.93;74.49;91372.06;6309250;22;20037;-80
2023/10/28 06:44:27;;;;;;;1.15;1.00;;;;;;;15.32;69.04;91380.13;6308243;22;20422;-81
2023/10/28 06:46:53;;;;;;;0.70;0.60;;;;;;;16.09;70.61;91390.09;6308322;22;19999;-79
2023/10/28 06:49:21;;;;;;;1.27;0.80;;;;;;;16.88;63.51;91388.22;6309386;22;20854;-81
2023/10/28 06:51:47;;;;;;;0.68;0.68;;;;;;;17.31;60.44;91394.22;6281904;22;20378;-83
2023/10/28 06:54:14;;;;;;;3.45;1.00;;;;;;;17.95;57.14;91408.44;6280626;22;20011;-80
2023/10/28 06:56:39;;;;;;;1.02;0.65;;;;;;;17.85;56.11;91409.81;6305201;22;20023;-81
2023/10/28 06:59:05;;;;;;;1.17;0.80;;;;;;;17.89;56.61;91409.88;6306068;22;20361;-81
2023/10/28 07:01:32;;;;;;;0.75;0.70;;;;;;;18.52;55.05;91422.41;6280126;22;20332;-80
2023/10/28 07:03:58;;;;;;;0.77;0.60;;;;;;;18.57;54.56;91421.31;6306563;22;20034;-80
2023/10/28 07:06:23;;;;;;;1.85;0.90;;;;;;;19.07;51.52;91415.81;6307050;22;20014;-81
2023/10/28 07:08:49;;;;;;;0.93;0.60;;;;;;;19.64;50.37;91418.97;6306613;22;20015;-80
2023/10/28 07:11:15;;;;;;;0.70;0.70;;;;;;;20.43;47.50;91427.47;6306273;22;20014;-82
2023/10/28 07:13:40;;;;;;;0.68;0.68;;;;;;;20.79;46.43;91428.41;6307528;22;20011;-82
2023/10/28 07:16:06;;;;;;;0.77;0.70;;;;;;;20.70;46.63;91432.56;6279812;22;20014;-81
2023/10/28 07:18:33;;;;;;;0.85;0.85;;;;;;;21.01;46.97;91428.47;6308707;22;20022;-81
2023/10/28 07:21:00;;;;;;;1.08;0.90;;;;;;;21.30;47.28;91426.66;6309091;22;20844;-82
2023/10/28 07:23:31;;;;;;;2.83;1.17;;;;;;;21.92;46.33;91436.19;6308619;22;20448;-81
2023/10/28 07:26:01;;;;;;;4.13;1.05;;;;;;;22.83;44.81;91438.31;6254492;22;20018;-81
2023/10/28 07:28:33;;;;;;;3.08;1.20;;;;;;;21.86;47.40;91437.72;6280923;22;20012;-82
2023/10/28 07:31:01;;;;;;;2.03;1.10;;;;;;;22.09;48.55;91434.66;6280316;22;20019;-80
2023/10/28 07:33:27;;;;;;;2.50;1.10;;;;;;;22.21;46.99;91444.16;6308908;22;20002;-80
2023/10/28 07:35:53;;;;;;;2.72;1.10;;;;;;;22.78;43.69;91446.69;6308323;22;20353;-80
2023/10/28 07:38:20;;;;;;;2.10;1.15;;;;;;;22.80;44.67;91452.41;6281141;22;20023;-80
2023/10/28 07:40:46;;;;;;;1.17;1.00;;;;;;;23.39;44.84;91446.44;6306185;22;20015;-79
2023/10/28 07:43:13;;;;;;;4.03;1.15;;;;;;;23.65;44.95;91457.72;6306314;22;20011;-80
2023/10/28 07:45:39;;;;;;;1.90;1.30;;;;;;;23.73;45.38;91461.09;6307000;22;20019;-79
2023/10/28 07:48:11;;;;;;;2.40;1.20;;;;;;;23.79;44.81;91467.59;6306710;22;20011;-80
2023/10/28 07:50:42;;;;;;;3.22;1.60;;;;;;;22.13;50.92;91472.72;6306255;22;20486;-79
2023/10/28 07:53:08;;;;;;;3.15;1.40;;;;;;;21.48;58.14;91479.94;6306185;22;20490;-80
2023/10/28 07:55:34;;;;;;;5.45;1.50;;;;;;;21.26;58.03;91492.41;6254588;22;20017;-80
2023/10/28 07:58:01;;;;;;;2.00;1.25;;;;;;;21.29;56.41;91496.22;6308385;22;20011;-80
2023/10/28 08:00:26;;;;;;;2.55;1.60;;;;;;;19.68;60.19;91498.63;6309044;22;20015;-79
2023/10/28 08:02:53;;;;;;;1.63;0.90;;;;;;;17.48;64.03;91500.31;6306933;22;20003;-79
2023/10/28 08:05:19;;;;;;;2.75;1.02;;;;;;;17.56;64.18;91503.88;6306227;22;20015;-79
2023/10/28 08:07:48;;;;;;;5.95;1.63;;;;;;;16.92;77.15;91513.28;6278614;22;20011;-79
2023/10/28 08:10:14;;;;;;;3.35;1.55;;;;;;;16.83;78.68;91511.59;6307073;22;20078;-79
2023/10/28 08:12:41;;;;;;;2.10;1.25;;;;;;;16.91;78.73;91517.03;6305150;22;20476;-79
2023/10/28 08:15:10;;;;;;;3.00;1.15;;;;;;;17.00;80.12;91520.22;6306232;22;20015;-79
2023/10/28 08:17:35;;;;;;;3.17;1.30;;;;;;;16.70;80.09;91517.34;6307671;22;20445;-79
2023/10/28 08:20:03;;;;;;;3.33;1.30;;;;;;;17.14;80.43;91514.47;6306990;22;20094;-79
2023/10/28 08:22:29;;;;;;;1.63;1.00;;;;;;;16.77;67.05;91522.78;6307182;22;20015;-79
2023/10/28 08:24:55;;;;;;;2.33;1.20;;;;;;;17.31;76.17;91521.16;6308734;22;20010;-79
2023/10/28 08:27:21;;;;;;;2.20;1.30;;;;;;;17.24;68.97;91514.63;6307287;22;20059;-79
2023/10/28 08:29:48;;;;;;;1.52;1.00;;;;;;;17.42;66.20;91530.06;6254235;22;20208;-79
2023/10/28 08:32:17;;;;;;;2.08;1.10;;;;;;;17.33;73.04;91538.22;6307564;22;20054;-78
2023/10/28 08:34:44;;;;;;;2.15;1.30;;;;;;;16.89;76.29;91553.59;6307537;22;20018;-79
2023/10/28 08:37:10;;;;;;;1.83;1.17;;;;;;;16.31;74.95;91562.94;6310501;22;20096;-78
2023/10/28 08:39:36;;;;;;;2.65;1.20;;;;;;;16.42;71.30;91566.59;6309764;22;20011;-79
2023/10/28 08:42:04;;;;;;;1.48;0.73;;;;;;;16.96;67.45;91572.28;6309137;22;20102;-78
2023/10/28 08:44:34;;;;;;;2.10;1.20;;;;;;;17.34;68.67;91570.72;6309284;22;20399;-79
2023/10/28 08:47:05;;;;;;;1.00;0.90;;;;;;;17.54;62.96;91574.91;6309570;22;20011;-79
2023/10/28 08:49:35;;;;;;;3.28;1.20;;;;;;;17.16;66.11;91581.75;6309329;22;20322;-79
2023/10/28 08:52:02;;;;;;;3.40;1.40;;;;;;;17.14;76.18;91580.56;6308581;22;20459;-79
2023/10/28 08:54:30;;;;;;;6.97;1.60;;;;;;;16.66;80.49;91588.59;6255653;22;20349;-79
2023/10/28 08:56:56;;;;;;;2.08;1.23;;;;;;;16.26;83.82;91584.34;6305602;22;20003;-78
2023/10/28 08:59:22;;;;;;;2.17;1.27;;;;;;;16.15;82.12;91597.28;6279847;22;20011;-78
2023/10/28 09:01:48;;;;;;;3.00;1.10;;;;;;;15.86;78.88;91593.22;6308130;22;20007;-78
2023/10/28 09:04:15;;;;;;;1.35;0.85;;;;;;;15.88;68.39;91600.78;6279001;22;20022;-78
2023/10/28 09:06:42;;;;;;;1.75;1.10;;;;;;;15.50;73.53;91587.00;6309038;22;20007;-78
2023/10/28 09:09:13;;;;;;;9.18;1.33;;;;;;;14.85;76.42;91604.81;6280059;22;20402;-80
2023/10/28 09:11:40;;;;;;;5.95;1.40;;;;;;;14.74;73.49;91604.53;6309911;22;20066;-78
2023/10/28 09:14:07;;;;;;;3.90;1.10;;;;;;;14.58;80.31;91605.19;6313714;22;20006;-78
2023/10/28 09:16:34;;;;;;;11.55;1.50;;;;;;;14.61;83.37;91600.38;6263631;22;20018;-78
2023/10/28 09:19:02;;;;;;;3.83;1.23;;;;;;;14.22;87.01;91610.47;6317180;22;20007;-77
2023/10/28 09:21:29;;;;;;;2.97;1.23;;;;;;;14.19;87.98;91611.13;6285378;22;20019;-79
2023/10/28 09:24:02;;;;;;;2.00;1.17;;;;;;;14.23;87.50;91607.53;6310735;22;20009;-79
2023/10/28 09:26:30;;;;;;;1.92;1.05;;;;;;;14.27;79.03;91610.25;6309752;22;20019;-78
2023/10/28 09:28:58;;;;;;;1.67;0.95;;;;;;;14.03;83.35;91611.03;6310514;22;20353;-78
2023/10/28 09:31:26;;;;;;;2.67;1.30;;;;;;;13.91;81.92;91607.25;6309751;22;20091;-79
2023/10/28 09:33:52;;;;;;;2.72;1.25;;;;;;;14.05;83.04;91600.91;6255409;22;20043;-78
2023/10/28 09:36:18;;;;;;;3.05;1.27;;;;;;;14.04;89.78;91605.41;6309247;22;20007;-79
2023/10/28 09:38:45;;;;;;;2.00;1.35;;;;;;;13.91;80.27;91606.50;6310084;22;20094;-78
2023/10/28 09:41:12;;;;;;;2.15;1.30;;;;;;;14.03;88.71;91614.41;6309234;22;20019;-79
2023/10/28 09:43:38;;;;;;;3.63;1.50;;;;;;;14.14;88.08;91606.88;6308913;22;19999;-79
2023/10/28 09:46:05;;;;;;;4.68;1.30;;;;;;;14.51;76.76;91622.63;6309060;22;20022;-79
2023/10/28 09:48:38;;;;;;;1.95;1.30;;;;;;;14.65;82.20;91607.28;6308924;22;20439;-79
2023/10/28 09:51:05;;;;;;;1.52;1.17;;;;;;;14.61;81.12;91611.66;6283143;22;20021;-79
2023/10/28 09:53:36;;;;;;;1.25;0.90;;;;;;;14.84;85.26;91616.44;6309962;22;20069;-79
2023/10/28 09:56:03;;;;;;;1.65;1.02;;;;;;;14.32;85.65;91604.75;6308341;22;20011;-79
2023/10/28 09:58:41;;;;;;;6.95;1.50;;;;;;;14.46;91.11;91599.94;6283816;22;20007;-81
2023/10/28 10:01:46;;;;;;;5.43;1.42;;;;;;;14.31;94.81;91609.25;6309823;22;20018;-79
2023/10/28 10:04:19;;;;;;;6.68;1.55;;;;;;;14.07;100.00;91599.50;6278253;22;20026;-78
2023/10/28 10:06:45;;;;;;;14.05;1.77;;;;;;;13.95;100.00;91604.75;6309511;22;20342;-79
2023/10/28 10:09:12;;;;;;;4.28;1.40;;;;;;;14.05;100.00;91606.19;6309445;22;20000;-81
2023/10/28 10:11:43;;;;;;;3.33;1.38;;;;;;;14.10;100.00;91611.25;6282530;22;20625;-80
2023/10/28 10:14:11;;;;;;;4.13;1.40;;;;;;;13.99;100.00;91607.50;6308689;22;20479;-79
2023/10/28 10:17:28;;;;;;;3.58;1.30;;;;;;;14.05;100.00;91611.44;6310165;22;20011;-79
2023/10/28 10:19:59;;;;;;;3.17;1.42;;;;;;;13.95;100.00;91613.41;6154558;23;20064;-80
2023/10/28 10:22:31;;;;;;;2.55;1.48;;;;;;;14.35;100.00;91615.41;6154830;22;20011;-80
2023/10/28 10:24:57;;;;;;;2.45;1.40;;;;;;;14.41;92.84;91620.44;6307667;22;20022;-80
2023/10/28 10:27:40;;;;;;;3.17;1.30;;;;;;;14.36;94.54;91614.31;6281366;22;20003;-78
2023/10/28 10:30:10;;;;;;;1.70;1.10;;;;;;;14.20;92.88;91618.69;6280277;22;20011;-79
2023/10/28 10:32:47;;;;;;;2.58;1.38;;;;;;;14.29;98.21;91629.13;6278741;22;20034;-77
2023/10/28 10:35:26;;;;;;;3.47;1.40;;;;;;;14.15;97.04;91632.06;6308809;22;20085;-80
2023/10/28 10:38:10;;;;;;;2.30;1.10;;;;;;;14.37;98.06;91634.28;6307082;22;20007;-81
2023/10/28 10:40:41;;;;;;;1.90;1.15;;;;;;;14.69;95.40;91631.09;6307499;22;20015;-78
2023/10/28 10:43:10;;;;;;;2.60;1.50;;;;;;;15.07;100.00;91622.00;6307791;22;20007;-78
2023/10/28 10:45:37;;;;;;;3.20;1.58;;;;;;;15.10;100.00;91627.38;6279002;22;20014;-79
2023/10/28 10:48:06;;;;;;;3.20;1.50;;;;;;;15.22;100.00;91625.78;6308255;22;20019;-79
2023/10/28 10:50:31;;;;;;;2.72;1.45;;;;;;;15.15;100.00;91613.97;6279232;22;20003;-79
2023/10/28 10:53:00;;;;;;;3.20;1.48;;;;;;;15.43;100.00;91626.38;6308474;22;20011;-79
2023/10/28 10:55:28;;;;;;;4.65;1.98;;;;;;;15.63;100.00;91627.28;6311001;22;20033;-79
2023/10/28 10:57:54;;;;;;;2.78;1.50;;;;;;;15.95;99.82;91627.34;6308331;22;20084;-77
2023/10/28 11:00:20;;;;;;;4.53;1.67;;;;;;;15.79;100.00;91619.44;6279219;22;20011;-78
2023/10/28 11:02:47;;;;;;;2.08;1.27;;;;;;;15.33;100.00;91613.66;6280119;22;20012;-77
2023/10/28 11:05:14;;;;;;;5.70;1.88;;;;;;;15.16;100.00;91622.63;6305734;22;20337;-80
2023/10/28 11:07:45;;;;;;;4.85;2.20;;;;;;;14.50;100.00;91629.78;6305269;22;20038;-80
2023/10/28 11:10:12;;;;;;;10.93;2.58;;;;;;;14.55;100.00;91619.03;6307158;22;20003;-81
2023/10/28 11:12:38;;;;;;;4.68;2.40;;;;;;;14.45;100.00;91634.47;6306085;22;20090;-79
2023/10/28 11:15:05;;;;;;;5.75;2.95;;;;;;;14.32;100.00;91626.59;6306017;22;20444;-80
2023/10/28 11:17:31;;;;;;;8.30;2.95;;;;;;;14.40;100.00;91645.25;6307494;22;20015;-80
2023/10/28 11:20:00;;;;;;;6.93;3.20;;;;;;;14.85;100.00;91633.81;6306474;22;20042;-80
2023/10/28 11:22:29;;;;;;;8.52;2.60;;;;;;;15.24;100.00;91642.81;6254139;22;20032;-79
2023/10/28 11:24:55;;;;;;;6.85;3.13;;;;;;;15.15;100.00;91645.59;6306558;22;20011;-80
2023/10/28 11:27:23;;;;;;;11.57;2.95;;;;;;;14.97;100.00;91649.59;6308162;22;20026;-80
2023/10/28 11:29:59;;;;;;;8.07;3.00;;;;;;;15.33;100.00;91661.13;6309071;22;20003;-80
2023/10/28 11:32:28;;;;;;;8.15;3.55;;;;;;;15.82;100.00;91645.13;6308228;22;20018;-79